Time;durP1;ratioP1;P1;durP2;ratioP2;P2;SDS_P1;SDS_P2;PMS_P1;PMS_P2;Temp;Humidity;BMP_temperature;BMP_pressure;BME280_temperature;BME280_humidity;BME280_pressure;Samples;Min_cycle;Max_cycle;Signal;HPM_P1;HPM_P2
2023/04/10 00:00:12;;;;;;;13.38;9.35;;;;;;;3.99;59.99;100625.59;10254102;28;20050;-59
2023/04/10 00:05:14;;;;;;;10.95;8.70;;;;;;;4.02;59.88;100628.13;10260734;28;20158;-59
2023/04/10 00:10:16;;;;;;;11.85;9.13;;;;;;;4.04;59.91;100635.00;10263187;28;20427;-60
2023/04/10 00:15:18;;;;;;;11.30;8.60;;;;;;;4.04;60.02;100635.00;10280477;28;20053;-59
2023/04/10 00:20:21;;;;;;;14.13;8.38;;;;;;;4.07;60.14;100641.84;10265872;28;20047;-59
2023/04/10 00:25:23;;;;;;;14.15;8.80;;;;;;;3.99;60.00;100631.63;10265126;28;20475;-60
2023/04/10 00:30:25;;;;;;;11.88;8.90;;;;;;;3.96;60.37;100636.03;10292300;28;20407;-59
2023/04/10 00:35:27;;;;;;;11.38;8.75;;;;;;;3.94;60.38;100638.66;10319933;28;20133;-59
2023/04/10 00:40:29;;;;;;;12.30;9.70;;;;;;;3.91;60.27;100636.13;10254940;28;20050;-59
2023/04/10 00:45:31;;;;;;;15.15;9.13;;;;;;;3.83;60.20;100627.66;10275530;28;20039;-59
2023/04/10 00:50:33;;;;;;;14.23;9.55;;;;;;;3.78;60.18;100632.91;10253054;28;20047;-59
2023/04/10 00:55:34;;;;;;;11.82;9.25;;;;;;;3.71;60.24;100620.16;10265376;28;20047;-59
2023/04/10 01:00:36;;;;;;;12.27;9.52;;;;;;;3.28;60.56;100621.88;10253484;28;20141;-60
2023/04/10 01:05:46;;;;;;;12.05;9.45;;;;;;;3.17;61.11;100619.53;10251364;28;20054;-60
2023/04/10 01:10:56;;;;;;;14.63;10.85;;;;;;;3.09;61.15;100612.78;10266021;28;20047;-59
2023/04/10 01:16:04;;;;;;;16.45;11.38;;;;;;;3.09;61.47;100612.78;10250919;28;20577;-59
2023/04/10 01:21:09;;;;;;;15.82;11.02;;;;;;;3.10;61.23;100606.72;10271552;28;20098;-60
2023/04/10 01:26:16;;;;;;;13.98;10.45;;;;;;;3.16;61.44;100596.25;10275599;28;20182;-59
2023/04/10 01:31:28;;;;;;;15.20;10.38;;;;;;;3.07;61.75;100600.72;10266460;28;20054;-59
2023/04/10 01:36:36;;;;;;;16.17;11.02;;;;;;;2.96;61.91;100604.41;10251833;28;20043;-59
2023/04/10 01:41:42;;;;;;;14.55;10.98;;;;;;;2.97;61.95;100604.38;10268930;28;20053;-59
2023/04/10 01:46:48;;;;;;;13.05;10.48;;;;;;;3.02;61.97;100594.81;10274743;28;20054;-59
2023/04/10 01:51:53;;;;;;;13.32;10.38;;;;;;;3.12;61.80;100603.22;10259586;28;20435;-59
2023/04/10 01:56:55;;;;;;;16.50;10.65;;;;;;;3.20;61.80;100591.00;10273654;28;20121;-59
2023/04/10 02:02:00;;;;;;;13.43;9.88;;;;;;;3.25;61.55;100593.53;10264154;28;20039;-59
2023/04/10 02:07:07;;;;;;;13.90;10.45;;;;;;;3.27;61.30;100597.78;10274976;28;20050;-59
2023/04/10 02:12:15;;;;;;;14.20;10.02;;;;;;;3.26;61.32;100595.22;10295330;28;20133;-59
2023/04/10 02:17:22;;;;;;;15.07;10.45;;;;;;;3.23;61.37;100584.94;10316938;28;20502;-59
2023/04/10 02:22:25;;;;;;;14.77;9.65;;;;;;;3.28;61.39;100580.53;10291230;28;20490;-59
2023/04/10 02:27:37;;;;;;;16.13;11.77;;;;;;;3.31;61.61;100580.47;10276512;28;20065;-59
2023/04/10 02:32:39;;;;;;;17.67;11.45;;;;;;;3.26;61.34;100564.19;10276360;28;20482;-59
2023/04/10 02:37:41;;;;;;;15.55;11.15;;;;;;;3.11;61.51;100572.25;10274881;28;20117;-59
2023/04/10 02:42:45;;;;;;;16.35;11.32;;;;;;;3.14;61.51;100552.38;10304731;28;20483;-59
2023/04/10 02:47:46;;;;;;;16.88;11.43;;;;;;;3.07;60.95;100559.38;10262401;28;20058;-59
2023/04/10 02:52:49;;;;;;;13.60;10.70;;;;;;;2.90;61.46;100558.00;10288085;28;20149;-59
2023/04/10 02:57:51;;;;;;;14.25;10.27;;;;;;;2.99;61.69;100553.50;10264118;28;20046;-60
2023/04/10 03:02:53;;;;;;;14.05;10.43;;;;;;;2.98;61.52;100546.66;10265454;28;20050;-60
2023/04/10 03:07:56;;;;;;;17.55;13.00;;;;;;;2.92;61.51;100533.84;10260404;28;20054;-59
2023/04/10 03:12:58;;;;;;;17.10;12.25;;;;;;;2.70;61.78;100540.28;10278475;28;20035;-60
2023/04/10 03:18:00;;;;;;;15.73;11.95;;;;;;;2.54;62.00;100528.53;10256216;28;20049;-59
2023/04/10 03:23:02;;;;;;;17.42;12.45;;;;;;;2.55;62.29;100527.66;10292770;28;20069;-59
2023/04/10 03:28:04;;;;;;;18.20;12.40;;;;;;;2.51;62.24;100531.19;10269568;28;20047;-59
2023/04/10 03:33:06;;;;;;;15.02;11.23;;;;;;;2.47;62.52;100532.09;10245353;28;20107;-59
2023/04/10 03:38:08;;;;;;;15.68;11.32;;;;;;;2.54;62.37;100532.84;10276570;28;20046;-59
2023/04/10 03:43:10;;;;;;;17.25;10.90;;;;;;;2.58;62.28;100535.34;10272456;28;20143;-59
2023/04/10 03:48:12;;;;;;;16.88;11.70;;;;;;;2.49;62.25;100529.50;10255808;28;20506;-59
2023/04/10 03:53:17;;;;;;;16.95;11.65;;;;;;;2.37;62.59;100530.56;10273131;28;20046;-60
2023/04/10 03:58:19;;;;;;;14.35;11.10;;;;;;;2.27;62.61;100538.47;10273226;28;20527;-60
2023/04/10 04:03:21;;;;;;;12.85;9.55;;;;;;;2.35;62.78;100539.19;10272682;28;20409;-59
2023/04/10 04:08:26;;;;;;;13.82;10.30;;;;;;;2.44;62.41;100531.31;10264962;28;20435;-59
2023/04/10 04:14:00;;;;;;;14.68;10.27;;;;;;;2.43;62.10;100538.19;10264593;28;20098;-60
2023/04/10 04:19:22;;;;;;;15.13;11.65;;;;;;;2.42;62.33;100538.25;10268586;28;20054;-59
2023/04/10 04:24:55;;;;;;;16.40;11.55;;;;;;;2.43;62.70;100520.13;10276080;28;20061;-59
2023/04/10 04:30:09;;;;;;;14.75;11.40;;;;;;;2.41;62.39;100519.31;10280323;28;20053;-59
2023/04/10 04:35:40;;;;;;;17.83;12.73;;;;;;;2.21;62.29;100523.97;10257249;28;20051;-60
2023/04/10 04:41:11;;;;;;;14.63;8.27;;;;;;;2.10;62.71;100541.31;10256201;28;20050;-60
2023/04/10 04:46:31;;;;;;;16.67;10.77;;;;;;;2.29;62.72;100534.16;10259944;28;20046;-60
2023/04/10 04:51:52;;;;;;;13.65;10.68;;;;;;;2.27;62.46;100528.16;10256013;28;20134;-59
2023/04/10 04:57:10;;;;;;;16.02;12.20;;;;;;;2.05;62.83;100535.41;10290234;28;20047;-60
2023/04/10 05:02:35;;;;;;;20.40;13.38;;;;;;;1.99;63.01;100530.34;10251810;28;20170;-59
2023/04/10 05:07:45;;;;;;;13.80;9.60;;;;;;;1.81;63.45;100528.88;10268273;28;20058;-60
2023/04/10 05:13:19;;;;;;;18.88;12.73;;;;;;;1.79;63.80;100532.34;10255927;28;20059;-59
2023/04/10 05:18:47;;;;;;;15.88;11.05;;;;;;;1.82;64.01;100525.44;10267750;28;20051;-59
2023/04/10 05:24:18;;;;;;;20.00;12.77;;;;;;;1.85;63.85;100521.94;10263080;28;20149;-60
2023/04/10 05:29:42;;;;;;;17.42;11.52;;;;;;;1.82;63.99;100522.00;10262610;28;20504;-60
2023/04/10 05:34:56;;;;;;;15.98;11.68;;;;;;;1.93;64.00;100515.78;10261559;28;20494;-60
2023/04/10 05:40:19;;;;;;;16.73;12.18;;;;;;;1.92;64.21;100515.81;10259459;28;20058;-60
2023/04/10 05:45:43;;;;;;;17.88;12.40;;;;;;;1.94;64.38;100516.66;10263981;28;20054;-60
2023/04/10 05:51:11;;;;;;;19.10;13.23;;;;;;;1.89;64.43;100526.19;10264967;28;20083;-60
2023/04/10 05:56:30;;;;;;;18.13;11.95;;;;;;;2.12;64.21;100526.66;10281125;28;20369;-59
2023/04/10 06:01:41;;;;;;;14.30;10.23;;;;;;;2.62;63.61;100524.06;10263202;28;20563;-60
2023/04/10 06:06:43;;;;;;;18.70;11.73;;;;;;;3.10;62.80;100526.63;10269528;28;20050;-60
2023/04/10 06:11:44;;;;;;;16.65;12.25;;;;;;;3.20;62.68;100521.22;10261284;28;20050;-59
2023/04/10 06:16:49;;;;;;;18.13;11.95;;;;;;;3.22;62.74;100523.78;10272129;28;20054;-60
2023/04/10 06:21:51;;;;;;;16.75;11.25;;;;;;;3.44;62.84;100525.03;10260430;28;20049;-60
2023/04/10 06:26:55;;;;;;;15.85;11.40;;;;;;;3.70;62.22;100522.75;10277956;28;20559;-60
2023/04/10 06:31:58;;;;;;;14.98;11.88;;;;;;;3.97;61.71;100518.69;10270653;28;20057;-60
2023/04/10 06:37:03;;;;;;;15.73;12.20;;;;;;;4.21;61.60;100508.59;10263101;28;20434;-60
2023/04/10 06:42:06;;;;;;;15.85;12.10;;;;;;;4.27;61.02;100505.03;10260048;28;20137;-60
2023/04/10 06:47:19;;;;;;;16.38;12.18;;;;;;;4.37;60.94;100512.50;10266205;28;20545;-60
2023/04/10 06:52:21;;;;;;;14.68;12.10;;;;;;;4.59;60.38;100502.44;10257422;28;20133;-60
2023/04/10 06:57:22;;;;;;;15.00;11.38;;;;;;;4.67;60.21;100501.38;10260876;28;20102;-60
2023/04/10 07:02:25;;;;;;;15.90;12.55;;;;;;;4.78;59.96;100493.28;10256863;28;20137;-60
2023/04/10 07:07:28;;;;;;;15.93;12.15;;;;;;;4.94;59.59;100491.13;10259098;28;20135;-60
2023/04/10 07:12:29;;;;;;;15.13;11.65;;;;;;;5.22;59.05;100499.81;10281700;28;20704;-60
2023/04/10 07:17:31;;;;;;;20.33;13.43;;;;;;;5.59;59.01;100495.25;10264627;28;20407;-60
2023/04/10 07:22:33;;;;;;;17.80;13.25;;;;;;;5.92;58.37;100488.16;10266969;28;20050;-60
2023/04/10 07:27:35;;;;;;;14.70;11.65;;;;;;;5.99;58.34;100481.84;10289128;28;20038;-60
2023/04/10 07:32:39;;;;;;;14.25;10.93;;;;;;;6.24;57.62;100475.84;10264584;28;20054;-60
2023/04/10 07:37:42;;;;;;;15.70;12.07;;;;;;;6.57;57.18;100481.63;10273991;28;20042;-60
2023/04/10 07:42:45;;;;;;;14.82;11.65;;;;;;;7.19;56.11;100474.19;10265594;28;20490;-60
2023/04/10 07:47:47;;;;;;;15.18;11.65;;;;;;;8.04;54.38;100469.94;10267274;28;20520;-60
2023/04/10 07:52:49;;;;;;;12.55;10.63;;;;;;;9.13;53.17;100460.00;10276910;28;20547;-60
2023/04/10 07:57:51;;;;;;;13.30;10.95;;;;;;;9.72;51.18;100454.63;10275026;28;20046;-60
2023/04/10 08:02:52;;;;;;;14.45;10.75;;;;;;;10.09;50.09;100451.06;10267248;28;20061;-60
2023/04/10 08:07:55;;;;;;;14.18;10.80;;;;;;;10.72;48.98;100439.97;10263239;28;20046;-60
2023/04/10 08:12:57;;;;;;;13.88;10.43;;;;;;;10.96;48.47;100435.19;10258488;28;20053;-60
2023/04/10 08:17:58;;;;;;;13.73;10.55;;;;;;;11.76;47.49;100426.38;10273073;28;20050;-60
2023/04/10 08:23:00;;;;;;;12.60;10.60;;;;;;;12.14;46.18;100417.16;10263198;28;20051;-60
2023/04/10 08:28:20;;;;;;;11.93;9.32;;;;;;;12.47;46.10;100406.47;10262694;28;20507;-59
2023/04/10 08:33:22;;;;;;;11.15;9.32;;;;;;;12.68;44.89;100394.66;10260021;28;20057;-60
2023/04/10 08:38:26;;;;;;;11.85;9.20;;;;;;;12.88;44.40;100391.66;10291456;28;20298;-60
2023/04/10 08:43:28;;;;;;;10.80;8.82;;;;;;;13.34;43.81;100375.66;10259185;28;20561;-60
2023/04/10 08:49:00;;;;;;;11.13;7.97;;;;;;;14.06;41.25;100357.72;10260814;28;20059;-60
2023/04/10 08:54:06;;;;;;;10.45;6.25;;;;;;;14.12;41.16;100352.03;10260400;28;20081;-60
2023/04/10 08:59:08;;;;;;;6.60;5.20;;;;;;;14.40;39.30;100348.38;10256348;28;20510;-60
2023/04/10 09:04:10;;;;;;;5.85;4.55;;;;;;;14.36;37.70;100328.47;10260398;28;20055;-60
2023/04/10 09:09:34;;;;;;;;;;;;;;;14.45;34.90;100327.84;10269676;28;20047;-60
2023/04/10 09:14:36;;;;;;;6.47;4.60;;;;;;;14.70;37.29;100324.34;10293018;28;20607;-60
2023/04/10 09:19:38;;;;;;;6.22;4.65;;;;;;;14.75;35.65;100314.34;10254641;28;20091;-60
2023/04/10 09:24:42;;;;;;;5.65;4.40;;;;;;;14.88;34.50;100321.25;10271251;28;20062;-60
2023/04/10 09:29:49;;;;;;;5.95;4.50;;;;;;;15.24;35.43;100308.09;10261593;28;20086;-60
2023/04/10 09:34:56;;;;;;;5.05;4.05;;;;;;;15.50;33.45;100298.28;10263329;28;20042;-61
2023/04/10 09:39:58;;;;;;;5.80;4.57;;;;;;;15.55;33.81;100288.22;10262371;28;20396;-60
2023/04/10 09:45:00;;;;;;;8.00;4.70;;;;;;;15.52;33.92;100277.94;10262333;28;20043;-60
2023/04/10 09:50:03;;;;;;;5.95;4.03;;;;;;;15.73;33.79;100278.97;10250367;28;20059;-60
2023/04/10 09:55:07;;;;;;;7.82;4.00;;;;;;;15.71;33.24;100269.47;10262837;28;20494;-60
2023/04/10 10:00:11;;;;;;;6.30;4.50;;;;;;;15.85;33.25;100267.47;10284363;28;20510;-60
2023/04/10 10:05:13;;;;;;;6.82;4.57;;;;;;;15.94;32.96;100250.94;10273124;28;20043;-60
2023/04/10 10:10:15;;;;;;;5.00;4.05;;;;;;;16.01;32.87;100246.03;10280359;28;20055;-60
2023/04/10 10:15:40;;;;;;;5.35;4.20;;;;;;;16.09;31.85;100238.38;10267447;28;20062;-60
2023/04/10 10:20:44;;;;;;;6.28;4.82;;;;;;;15.99;32.83;100232.97;10269961;28;20047;-60
2023/04/10 10:25:48;;;;;;;7.45;4.93;;;;;;;16.05;32.94;100221.09;10268491;28;20256;-60
2023/04/10 10:30:50;;;;;;;5.60;4.43;;;;;;;16.17;32.84;100221.00;10270715;28;20133;-60
2023/04/10 10:35:52;;;;;;;5.90;4.45;;;;;;;16.20;32.85;100214.63;10262724;28;20137;-60
2023/04/10 10:41:08;;;;;;;5.60;4.50;;;;;;;16.22;33.01;100197.69;10264140;28;20043;-60
2023/04/10 10:46:23;;;;;;;5.70;4.53;;;;;;;16.39;30.58;100180.53;10265654;28;20050;-60
2023/04/10 10:51:53;;;;;;;6.20;4.45;;;;;;;16.61;31.67;100171.78;10259820;28;20054;-60
2023/04/10 10:56:57;;;;;;;5.45;4.10;;;;;;;16.84;32.96;100166.28;10262989;28;20043;-60
2023/04/10 11:02:15;;;;;;;5.45;3.85;;;;;;;17.19;30.78;100158.09;10258726;28;20287;-60
2023/04/10 11:07:18;;;;;;;6.50;3.90;;;;;;;17.27;31.20;100155.66;10259302;28;20118;-60
2023/04/10 11:12:24;;;;;;;4.47;3.38;;;;;;;17.32;29.85;100155.28;10254435;28;20055;-60
2023/04/10 11:17:46;;;;;;;4.78;3.50;;;;;;;17.26;30.21;100146.03;10258199;28;20507;-60
2023/04/10 11:23:10;;;;;;;4.70;3.60;;;;;;;17.54;29.02;100134.84;10260792;28;20178;-61
2023/04/10 11:28:31;;;;;;;4.80;3.28;;;;;;;17.33;28.96;100114.63;10259590;28;20054;-60
2023/04/10 11:33:33;;;;;;;;;;;;;;;16.78;30.27;100103.41;10268284;28;20166;-60
2023/04/10 11:38:37;;;;;;;4.53;3.35;;;;;;;17.32;30.36;100097.97;10261138;28;19937;-60
2023/04/10 11:43:38;;;;;;;4.63;3.60;;;;;;;17.40;30.10;100092.88;10272791;28;20047;-60
2023/04/10 11:48:41;;;;;;;4.53;3.25;;;;;;;17.35;29.87;100095.06;10256103;28;20120;-60
2023/04/10 11:53:42;;;;;;;4.72;3.72;;;;;;;17.41;30.14;100075.19;10258191;28;20415;-60
2023/04/10 11:58:46;;;;;;;6.07;3.60;;;;;;;17.54;29.40;100068.75;10259463;28;20583;-60
2023/04/10 12:03:48;;;;;;;6.10;3.50;;;;;;;17.91;29.76;100053.13;10260805;28;20141;-60
2023/04/10 12:08:50;;;;;;;4.45;3.42;;;;;;;17.85;29.07;100054.50;10302312;28;20046;-60
2023/04/10 12:13:54;;;;;;;3.88;3.10;;;;;;;17.94;28.49;100033.47;10260060;28;20051;-60
2023/04/10 12:18:56;;;;;;;6.15;3.20;;;;;;;18.02;28.02;100025.69;10262525;28;20134;-60
2023/04/10 12:23:58;;;;;;;6.55;3.38;;;;;;;18.01;28.43;100029.34;10264367;28;20402;-60
2023/04/10 12:29:00;;;;;;;4.38;3.38;;;;;;;18.37;28.11;100026.06;10283040;28;20491;-60
2023/04/10 12:34:04;;;;;;;6.60;3.70;;;;;;;18.65;27.65;100006.69;10264548;28;20352;-60
2023/04/10 12:39:21;;;;;;;12.20;5.03;;;;;;;18.55;27.64;99997.91;10268298;28;20146;-60
2023/04/10 12:44:23;;;;;;;4.72;3.28;;;;;;;18.50;26.67;99992.22;10264907;28;20916;-60
2023/04/10 12:49:25;;;;;;;3.80;2.70;;;;;;;18.50;27.37;99990.38;10260957;28;20498;-60
2023/04/10 12:54:35;;;;;;;3.60;2.67;;;;;;;18.58;24.74;99987.03;10263249;28;20054;-60
2023/04/10 12:59:37;;;;;;;3.97;2.80;;;;;;;18.52;25.30;99987.59;10280272;28;20051;-60
2023/04/10 13:04:39;;;;;;;4.10;2.90;;;;;;;18.30;26.25;99978.13;10257673;28;20054;-60
2023/04/10 13:09:41;;;;;;;4.93;2.90;;;;;;;18.57;25.97;99969.47;10300101;28;20038;-60
2023/04/10 13:14:43;;;;;;;4.15;2.90;;;;;;;18.77;25.89;99959.69;10279113;28;20051;-60
2023/04/10 13:19:45;;;;;;;5.03;3.08;;;;;;;18.90;26.31;99939.00;10299847;28;20046;-60
2023/04/10 13:24:47;;;;;;;5.60;3.40;;;;;;;19.07;26.26;99946.25;10263894;28;20399;-60
2023/04/10 13:29:48;;;;;;;5.47;3.45;;;;;;;19.14;25.55;99934.06;10285380;28;20042;-60
2023/04/10 13:34:51;;;;;;;5.68;3.03;;;;;;;19.25;25.94;99924.13;10264031;28;20047;-60
2023/04/10 13:39:53;;;;;;;5.18;3.00;;;;;;;19.17;25.64;99913.41;10291281;28;20054;-60
2023/04/10 13:44:55;;;;;;;4.38;2.50;;;;;;;19.07;25.75;99901.19;10323073;28;20046;-59
2023/04/10 13:49:57;;;;;;;4.40;2.60;;;;;;;19.19;26.06;99890.25;10286012;28;20046;-60
2023/04/10 13:54:58;;;;;;;4.90;2.83;;;;;;;19.41;25.87;99878.38;10282233;28;20775;-60
2023/04/10 14:00:01;;;;;;;4.25;2.80;;;;;;;19.34;25.93;99872.81;10299171;28;20034;-60
2023/04/10 14:05:15;;;;;;;3.50;2.60;;;;;;;19.34;25.52;99866.69;10286730;28;20058;-60
2023/04/10 14:10:18;;;;;;;4.78;2.70;;;;;;;19.17;25.07;99868.34;10285257;28;20042;-59
2023/04/10 14:15:20;;;;;;;3.47;2.58;;;;;;;19.09;25.37;99857.63;10295164;28;20055;-60
2023/04/10 14:20:21;;;;;;;3.80;2.58;;;;;;;18.76;25.91;99852.88;10269486;28;20808;-60
2023/04/10 14:25:23;;;;;;;5.15;3.10;;;;;;;18.69;26.07;99830.56;10294304;28;20046;-60
2023/04/10 14:30:29;;;;;;;3.90;2.90;;;;;;;18.93;26.58;99822.94;10273413;28;20047;-60
2023/04/10 14:35:31;;;;;;;4.07;2.80;;;;;;;19.08;25.73;99818.84;10289356;28;20042;-60
2023/04/10 14:40:33;;;;;;;4.63;3.47;;;;;;;18.87;25.67;99804.97;10281256;28;20050;-60
2023/04/10 14:45:35;;;;;;;4.03;2.55;;;;;;;18.59;26.06;99788.22;10284695;28;20050;-60
2023/04/10 14:50:37;;;;;;;3.78;2.67;;;;;;;18.54;26.03;99779.88;10290517;28;20058;-60
2023/04/10 14:55:38;;;;;;;3.65;2.42;;;;;;;18.55;26.73;99770.13;10300310;28;20195;-60
2023/04/10 15:00:41;;;;;;;3.92;2.60;;;;;;;18.55;26.57;99757.72;10305104;28;20146;-60
2023/04/10 15:05:43;;;;;;;4.45;2.50;;;;;;;18.49;26.34;99763.59;10276611;28;20140;-60
2023/04/10 15:10:45;;;;;;;3.70;2.53;;;;;;;18.69;25.96;99748.44;10282560;28;20503;-60
2023/04/10 15:15:48;;;;;;;4.88;2.60;;;;;;;18.60;26.06;99725.50;10302910;28;20105;-60
2023/04/10 15:20:49;;;;;;;6.95;2.50;;;;;;;18.57;26.41;99709.91;10283546;28;20043;-60
2023/04/10 15:25:52;;;;;;;3.45;2.30;;;;;;;18.13;26.25;99700.88;10279626;28;20059;-60
2023/04/10 15:30:54;;;;;;;3.25;2.25;;;;;;;17.91;26.48;99684.53;10250246;28;20850;-60
2023/04/10 15:35:56;;;;;;;3.30;2.30;;;;;;;17.72;26.60;99670.38;10273039;28;20451;-60
2023/04/10 15:40:58;;;;;;;3.42;2.10;;;;;;;17.91;26.67;99681.88;10281643;28;20724;-60
2023/04/10 15:46:00;;;;;;;3.72;2.50;;;;;;;17.95;27.14;99660.28;10293663;28;20477;-60
2023/04/10 15:51:04;;;;;;;3.65;2.55;;;;;;;17.89;26.87;99663.50;10294116;28;20165;-60
2023/04/10 15:56:07;;;;;;;13.23;6.32;;;;;;;17.80;26.91;99667.84;10278741;28;20518;-60
2023/04/10 16:01:09;;;;;;;5.90;3.15;;;;;;;17.78;27.21;99677.72;10291953;28;20046;-60
2023/04/10 16:06:11;;;;;;;4.22;2.05;;;;;;;17.93;26.83;99675.47;10288273;28;20047;-60
2023/04/10 16:11:13;;;;;;;3.80;2.13;;;;;;;17.61;27.54;99678.44;10265795;28;20045;-60
2023/04/10 16:16:15;;;;;;;3.45;2.40;;;;;;;17.51;27.47;99684.72;10266150;28;20392;-60
2023/04/10 16:21:19;;;;;;;3.80;2.70;;;;;;;17.25;28.21;99665.94;10294127;28;20054;-60
2023/04/10 16:26:21;;;;;;;4.10;2.30;;;;;;;17.14;28.41;99665.28;10290017;28;20054;-60
2023/04/10 16:31:23;;;;;;;3.80;2.40;;;;;;;17.22;28.57;99660.94;10288966;28;20049;-60
2023/04/10 16:36:25;;;;;;;3.08;2.08;;;;;;;17.16;28.99;99666.78;10281706;28;20055;-60
2023/04/10 16:41:27;;;;;;;3.50;2.22;;;;;;;17.08;29.11;99658.72;10297417;28;20076;-60
2023/04/10 16:46:29;;;;;;;4.80;2.90;;;;;;;16.96;29.33;99642.19;10282551;28;20047;-60
2023/04/10 16:51:31;;;;;;;3.72;2.30;;;;;;;17.11;28.94;99626.75;10289105;28;20061;-60
2023/04/10 16:56:33;;;;;;;3.97;1.90;;;;;;;16.95;28.53;99626.47;10275790;28;20312;-60
2023/04/10 17:01:38;;;;;;;3.25;2.03;;;;;;;16.96;28.56;99634.25;10264899;28;20043;-60
2023/04/10 17:06:40;;;;;;;2.40;1.70;;;;;;;16.80;28.14;99612.00;10268682;28;20058;-60
2023/04/10 17:11:42;;;;;;;3.10;1.90;;;;;;;16.77;27.93;99607.81;10282236;28;20052;-60
2023/04/10 17:16:44;;;;;;;2.85;1.85;;;;;;;16.56;28.03;99590.44;10270102;28;20087;-60
2023/04/10 17:21:46;;;;;;;2.85;1.90;;;;;;;16.35;28.06;99595.81;10272795;28;20046;-60
2023/04/10 17:26:48;;;;;;;3.00;1.80;;;;;;;16.24;28.23;99593.28;10290132;28;20057;-60
2023/04/10 17:31:50;;;;;;;2.70;1.85;;;;;;;16.12;29.08;99576.72;10285685;28;20043;-60
2023/04/10 17:36:52;;;;;;;3.30;1.90;;;;;;;16.04;29.33;99571.28;10308928;28;20046;-60
2023/04/10 17:41:55;;;;;;;3.70;2.20;;;;;;;15.90;29.25;99553.19;10277601;28;20410;-60
2023/04/10 17:46:57;;;;;;;5.30;2.10;;;;;;;15.83;29.80;99545.97;10293527;28;20053;-60
2023/04/10 17:51:59;;;;;;;6.05;2.00;;;;;;;15.76;29.91;99556.22;10283690;28;20098;-60
2023/04/10 17:57:01;;;;;;;3.85;2.00;;;;;;;15.67;30.32;99580.75;10295051;28;20405;-60
2023/04/10 18:02:03;;;;;;;3.20;2.25;;;;;;;15.65;30.44;99572.13;10270757;28;20054;-60
2023/04/10 18:07:05;;;;;;;3.15;2.10;;;;;;;15.54;30.81;99559.03;10294724;28;20050;-60
2023/04/10 18:12:07;;;;;;;3.45;2.20;;;;;;;15.49;31.70;99547.19;10275241;28;20138;-60
2023/04/10 18:17:09;;;;;;;3.80;2.20;;;;;;;15.36;31.49;99536.88;10271267;28;20047;-59
2023/04/10 18:22:11;;;;;;;4.07;2.17;;;;;;;15.35;32.08;99529.91;10264238;28;20054;-59
2023/04/10 18:27:13;;;;;;;4.03;2.10;;;;;;;15.30;32.23;99532.13;10303927;28;20051;-59
2023/04/10 18:32:15;;;;;;;2.95;2.00;;;;;;;15.25;32.50;99534.28;10265656;28;20042;-60
2023/04/10 18:37:17;;;;;;;3.72;2.38;;;;;;;15.20;32.73;99539.13;10278951;28;21350;-59
2023/04/10 18:42:18;;;;;;;4.07;2.47;;;;;;;15.12;32.86;99531.88;10263284;28;20408;-59
2023/04/10 18:47:20;;;;;;;3.65;2.22;;;;;;;15.09;33.26;99533.94;10261757;28;20279;-59
2023/04/10 18:52:22;;;;;;;3.30;2.20;;;;;;;15.13;33.78;99535.34;10257416;28;20140;-59
2023/04/10 18:57:24;;;;;;;3.10;2.10;;;;;;;15.07;33.62;99535.84;10262709;28;20432;-59
2023/04/10 19:02:26;;;;;;;4.45;2.20;;;;;;;15.09;34.22;99534.78;10259283;28;20149;-59
2023/04/10 19:07:30;;;;;;;3.42;2.42;;;;;;;15.00;36.31;99518.91;10259281;28;20046;-59
2023/04/10 19:12:36;;;;;;;5.47;3.20;;;;;;;14.91;38.07;99531.06;10256606;28;20077;-59
2023/04/10 19:17:40;;;;;;;5.15;3.47;;;;;;;14.77;39.22;99518.22;10264408;28;20058;-59
2023/04/10 19:22:42;;;;;;;6.40;4.30;;;;;;;14.79;38.94;99511.03;10262125;28;20078;-59
2023/04/10 19:27:44;;;;;;;3.80;2.53;;;;;;;14.71;39.18;99492.41;10272861;28;20496;-59
2023/04/10 19:32:46;;;;;;;6.68;2.65;;;;;;;14.68;39.76;99489.16;10342605;28;20042;-59
2023/04/10 19:37:48;;;;;;;4.68;2.53;;;;;;;14.53;40.01;99502.63;10344289;28;20049;-59
2023/04/10 19:42:50;;;;;;;4.75;2.10;;;;;;;14.59;40.69;99478.44;10353159;28;20038;-59
2023/04/10 19:47:52;;;;;;;6.57;4.47;;;;;;;14.39;40.39;99471.34;10349135;28;20088;-59
2023/04/10 19:52:54;;;;;;;6.00;3.20;;;;;;;14.29;40.95;99485.38;10344234;28;20123;-59
2023/04/10 19:57:56;;;;;;;5.68;2.22;;;;;;;14.21;40.77;99478.13;10347108;28;20054;-59
2023/04/10 20:02:57;;;;;;;3.75;2.10;;;;;;;14.27;41.37;99461.00;10327603;28;20053;-59
2023/04/10 20:07:59;;;;;;;3.67;2.22;;;;;;;14.32;42.01;99464.09;10345537;28;20528;-59
2023/04/10 20:13:01;;;;;;;3.58;1.92;;;;;;;14.22;41.90;99471.06;10368073;28;20126;-59
2023/04/10 20:18:03;;;;;;;5.78;2.17;;;;;;;14.19;42.21;99445.84;10345993;28;20049;-59
2023/04/10 20:23:05;;;;;;;5.82;2.30;;;;;;;14.11;42.58;99435.13;10345708;28;20042;-59
2023/04/10 20:28:07;;;;;;;3.95;2.25;;;;;;;14.04;43.34;99441.03;10349640;28;20691;-59
2023/04/10 20:33:09;;;;;;;5.47;2.33;;;;;;;14.13;43.42;99425.31;10359407;28;20074;-59
2023/04/10 20:38:11;;;;;;;3.88;2.20;;;;;;;14.09;43.25;99423.91;10365902;28;20392;-59
2023/04/10 20:43:13;;;;;;;10.95;4.10;;;;;;;14.01;43.78;99415.81;10352394;28;20041;-59
2023/04/10 20:48:15;;;;;;;5.75;3.00;;;;;;;13.95;44.04;99400.53;10351115;28;20042;-60
2023/04/10 20:53:17;;;;;;;5.25;2.50;;;;;;;13.98;43.92;99389.78;10338986;28;20060;-59
2023/04/10 20:58:19;;;;;;;3.72;2.30;;;;;;;13.97;44.25;99369.69;10343227;28;20146;-60
2023/04/10 21:03:21;;;;;;;4.38;2.40;;;;;;;13.94;44.37;99363.88;10352130;28;20470;-59
2023/04/10 21:08:23;;;;;;;4.13;2.60;;;;;;;13.88;44.32;99373.06;10360032;28;20446;-59
2023/04/10 21:13:25;;;;;;;6.80;3.33;;;;;;;13.85;45.48;99375.13;10342618;28;20313;-59
2023/04/10 21:18:27;;;;;;;5.55;3.70;;;;;;;13.78;46.94;99401.06;10364201;28;20524;-59
2023/04/10 21:23:28;;;;;;;5.25;2.70;;;;;;;13.62;47.68;99398.84;10350567;28;20048;-59
2023/04/10 21:28:30;;;;;;;6.70;4.93;;;;;;;13.38;49.13;99385.03;10383451;28;20057;-59
2023/04/10 21:33:32;;;;;;;3.28;2.35;;;;;;;13.42;48.77;99367.22;10345246;28;20444;-59
2023/04/10 21:38:34;;;;;;;4.35;2.50;;;;;;;13.37;49.17;99383.34;10347278;28;20041;-59
2023/04/10 21:43:37;;;;;;;4.40;2.63;;;;;;;13.42;49.24;99381.22;10356176;28;20556;-59
2023/04/10 21:48:40;;;;;;;5.05;2.67;;;;;;;13.25;50.00;99381.69;10346225;28;20244;-59
2023/04/10 21:53:42;;;;;;;4.50;2.90;;;;;;;13.12;51.00;99406.44;10347462;28;20175;-59
2023/04/10 21:58:43;;;;;;;7.07;2.80;;;;;;;12.87;52.47;99429.34;10350841;28;20493;-59
2023/04/10 22:03:45;;;;;;;7.30;3.10;;;;;;;12.51;55.05;99416.41;10378404;28;20143;-59
2023/04/10 22:08:47;;;;;;;4.78;3.30;;;;;;;12.36;56.04;99417.53;10361059;28;20061;-59
2023/04/10 22:13:49;;;;;;;5.57;3.80;;;;;;;12.00;58.57;99417.63;10350594;28;20137;-59
2023/04/10 22:18:51;;;;;;;11.13;4.32;;;;;;;11.91;58.99;99436.63;10367100;28;20481;-59
2023/04/10 22:23:52;;;;;;;6.63;4.43;;;;;;;11.69;60.57;99442.59;10378924;28;20053;-59
2023/04/10 22:28:54;;;;;;;7.18;4.85;;;;;;;11.52;61.49;99432.50;10350162;28;20384;-59
2023/04/10 22:33:56;;;;;;;6.22;4.50;;;;;;;11.51;61.69;99422.13;10350104;28;20117;-59
2023/04/10 22:38:58;;;;;;;6.10;4.50;;;;;;;11.63;61.97;99436.97;10346981;28;20045;-59
2023/04/10 22:44:00;;;;;;;16.23;5.90;;;;;;;11.58;62.56;99473.16;10348714;28;20042;-59
2023/04/10 22:49:02;;;;;;;5.43;3.83;;;;;;;11.37;63.28;99492.97;10348319;28;20053;-59
2023/04/10 22:54:03;;;;;;;4.57;2.35;;;;;;;11.15;62.18;99476.13;10367757;28;20058;-59
2023/04/10 22:59:05;;;;;;;3.22;2.10;;;;;;;11.09;61.70;99484.41;10348597;28;20120;-59
2023/04/10 23:04:07;;;;;;;2.85;1.70;;;;;;;11.04;61.52;99496.13;10350867;28;20050;-59
2023/04/10 23:09:09;;;;;;;4.63;1.73;;;;;;;11.01;61.42;99491.91;10353431;28;20136;-59
2023/04/10 23:14:11;;;;;;;3.72;1.35;;;;;;;10.93;61.42;99494.22;10347318;28;20256;-59
2023/04/10 23:19:13;;;;;;;3.25;1.40;;;;;;;10.90;61.01;99476.13;10347533;28;20124;-59
2023/04/10 23:24:14;;;;;;;3.28;1.40;;;;;;;10.80;60.86;99472.47;10361326;28;20116;-59